sensor_id;sensor_type;location;lat;lon;timestamp;P1;durP1;ratioP1;P2;durP2;ratioP2
239;SDS011;104;53.590;10.004;2023-06-26T00:02:02;20.53;;;12.70;;
239;SDS011;104;53.590;10.004;2023-06-26T00:04:29;23.77;;;14.27;;
239;SDS011;104;53.590;10.004;2023-06-26T00:06:56;16.80;;;12.17;;
239;SDS011;104;53.590;10.004;2023-06-26T00:09:23;21.63;;;12.63;;
239;SDS011;104;53.590;10.004;2023-06-26T00:11:51;25.43;;;13.00;;
239;SDS011;104;53.590;10.004;2023-06-26T00:14:18;20.00;;;12.60;;
239;SDS011;104;53.590;10.004;2023-06-26T00:16:48;24.00;;;12.20;;
239;SDS011;104;53.590;10.004;2023-06-26T00:19:15;20.53;;;12.20;;
239;SDS011;104;53.590;10.004;2023-06-26T00:21:43;18.90;;;11.70;;
239;SDS011;104;53.590;10.004;2023-06-26T00:24:11;18.03;;;12.07;;
239;SDS011;104;53.590;10.004;2023-06-26T00:26:38;38.10;;;15.80;;
239;SDS011;104;53.590;10.004;2023-06-26T00:29:06;18.20;;;12.00;;
239;SDS011;104;53.590;10.004;2023-06-26T00:31:33;19.90;;;11.67;;
239;SDS011;104;53.590;10.004;2023-06-26T00:34:02;21.83;;;12.00;;
239;SDS011;104;53.590;10.004;2023-06-26T00:36:29;33.10;;;19.90;;
239;SDS011;104;53.590;10.004;2023-06-26T00:38:57;27.30;;;17.50;;
239;SDS011;104;53.590;10.004;2023-06-26T00:41:25;22.20;;;12.50;;
239;SDS011;104;53.590;10.004;2023-06-26T00:43:52;20.37;;;13.33;;
239;SDS011;104;53.590;10.004;2023-06-26T00:46:19;17.33;;;11.80;;
239;SDS011;104;53.590;10.004;2023-06-26T00:48:47;20.63;;;12.63;;
239;SDS011;104;53.590;10.004;2023-06-26T00:51:16;20.70;;;14.00;;
239;SDS011;104;53.590;10.004;2023-06-26T00:53:44;18.60;;;12.10;;
239;SDS011;104;53.590;10.004;2023-06-26T00:56:11;20.33;;;12.50;;
239;SDS011;104;53.590;10.004;2023-06-26T00:58:38;24.17;;;13.67;;
239;SDS011;104;53.590;10.004;2023-06-26T01:01:05;20.37;;;13.40;;
239;SDS011;104;53.590;10.004;2023-06-26T01:03:33;21.20;;;13.23;;
239;SDS011;104;53.590;10.004;2023-06-26T01:06:02;32.20;;;14.60;;
239;SDS011;104;53.590;10.004;2023-06-26T01:08:30;23.03;;;14.40;;
239;SDS011;104;53.590;10.004;2023-06-26T01:10:58;19.20;;;12.97;;
239;SDS011;104;53.590;10.004;2023-06-26T01:13:26;22.53;;;13.33;;
239;SDS011;104;53.590;10.004;2023-06-26T01:15:55;18.63;;;11.87;;
239;SDS011;104;53.590;10.004;2023-06-26T01:18:22;17.80;;;12.00;;
239;SDS011;104;53.590;10.004;2023-06-26T01:20:50;17.30;;;11.73;;
239;SDS011;104;53.590;10.004;2023-06-26T01:23:18;17.93;;;11.70;;
239;SDS011;104;53.590;10.004;2023-06-26T01:25:54;23.43;;;12.10;;
239;SDS011;104;53.590;10.004;2023-06-26T01:28:24;16.27;;;11.30;;
239;SDS011;104;53.590;10.004;2023-06-26T01:30:52;23.93;;;13.33;;
239;SDS011;104;53.590;10.004;2023-06-26T01:33:20;22.07;;;12.17;;
239;SDS011;104;53.590;10.004;2023-06-26T01:35:47;20.80;;;12.40;;
239;SDS011;104;53.590;10.004;2023-06-26T01:38:16;21.33;;;12.70;;
239;SDS011;104;53.590;10.004;2023-06-26T01:40:43;23.03;;;13.97;;
239;SDS011;104;53.590;10.004;2023-06-26T01:43:11;21.90;;;11.97;;
239;SDS011;104;53.590;10.004;2023-06-26T01:45:42;21.03;;;12.50;;
239;SDS011;104;53.590;10.004;2023-06-26T01:48:09;17.73;;;11.53;;
239;SDS011;104;53.590;10.004;2023-06-26T01:50:37;18.93;;;12.30;;
239;SDS011;104;53.590;10.004;2023-06-26T01:53:06;23.53;;;13.37;;
239;SDS011;104;53.590;10.004;2023-06-26T01:55:35;28.50;;;13.20;;
239;SDS011;104;53.590;10.004;2023-06-26T01:58:05;21.77;;;11.43;;
239;SDS011;104;53.590;10.004;2023-06-26T02:00:33;20.47;;;12.97;;
239;SDS011;104;53.590;10.004;2023-06-26T02:03:02;15.43;;;10.90;;
239;SDS011;104;53.590;10.004;2023-06-26T02:05:30;20.97;;;12.50;;
239;SDS011;104;53.590;10.004;2023-06-26T02:07:57;26.37;;;13.87;;
239;SDS011;104;53.590;10.004;2023-06-26T02:10:26;23.43;;;12.83;;
239;SDS011;104;53.590;10.004;2023-06-26T02:25:53;24.23;;;13.17;;
239;SDS011;104;53.590;10.004;2023-06-26T02:28:21;22.67;;;12.77;;
239;SDS011;104;53.590;10.004;2023-06-26T02:30:48;23.50;;;13.20;;
239;SDS011;104;53.590;10.004;2023-06-26T02:33:15;20.40;;;12.63;;
239;SDS011;104;53.590;10.004;2023-06-26T02:35:42;22.00;;;12.23;;
239;SDS011;104;53.590;10.004;2023-06-26T02:38:10;23.47;;;12.67;;
239;SDS011;104;53.590;10.004;2023-06-26T02:40:38;22.20;;;12.73;;
239;SDS011;104;53.590;10.004;2023-06-26T02:43:06;18.13;;;12.43;;
239;SDS011;104;53.590;10.004;2023-06-26T02:45:33;19.70;;;13.13;;
239;SDS011;104;53.590;10.004;2023-06-26T02:48:01;22.07;;;12.60;;
239;SDS011;104;53.590;10.004;2023-06-26T02:50:28;18.93;;;12.00;;
239;SDS011;104;53.590;10.004;2023-06-26T02:52:55;22.03;;;13.07;;
239;SDS011;104;53.590;10.004;2023-06-26T02:55:22;25.97;;;12.47;;
239;SDS011;104;53.590;10.004;2023-06-26T02:57:50;19.73;;;12.60;;
239;SDS011;104;53.590;10.004;2023-06-26T03:00:19;21.53;;;13.20;;
239;SDS011;104;53.590;10.004;2023-06-26T03:02:46;22.47;;;12.73;;
239;SDS011;104;53.590;10.004;2023-06-26T03:05:13;23.20;;;13.10;;
239;SDS011;104;53.590;10.004;2023-06-26T03:07:41;22.90;;;11.80;;
239;SDS011;104;53.590;10.004;2023-06-26T03:10:08;22.57;;;13.30;;
239;SDS011;104;53.590;10.004;2023-06-26T03:12:35;20.80;;;12.97;;
239;SDS011;104;53.590;10.004;2023-06-26T03:15:03;22.23;;;12.87;;
239;SDS011;104;53.590;10.004;2023-06-26T03:17:31;19.60;;;12.37;;
239;SDS011;104;53.590;10.004;2023-06-26T03:19:59;21.57;;;12.87;;
239;SDS011;104;53.590;10.004;2023-06-26T03:22:26;20.10;;;12.70;;
239;SDS011;104;53.590;10.004;2023-06-26T03:24:53;22.93;;;13.57;;
239;SDS011;104;53.590;10.004;2023-06-26T03:27:20;22.03;;;12.40;;
239;SDS011;104;53.590;10.004;2023-06-26T03:29:47;21.97;;;12.47;;
239;SDS011;104;53.590;10.004;2023-06-26T03:32:15;21.03;;;13.10;;
239;SDS011;104;53.590;10.004;2023-06-26T03:34:43;21.13;;;12.63;;
239;SDS011;104;53.590;10.004;2023-06-26T03:37:11;31.40;;;13.70;;
239;SDS011;104;53.590;10.004;2023-06-26T03:39:38;19.27;;;12.83;;
239;SDS011;104;53.590;10.004;2023-06-26T03:42:06;18.90;;;12.37;;
239;SDS011;104;53.590;10.004;2023-06-26T03:44:33;26.73;;;14.50;;
239;SDS011;104;53.590;10.004;2023-06-26T03:47:00;22.50;;;13.40;;
239;SDS011;104;53.590;10.004;2023-06-26T03:49:27;31.43;;;14.03;;
239;SDS011;104;53.590;10.004;2023-06-26T03:51:56;21.10;;;13.70;;
239;SDS011;104;53.590;10.004;2023-06-26T03:54:23;22.53;;;14.60;;
239;SDS011;104;53.590;10.004;2023-06-26T03:56:51;19.93;;;13.20;;
239;SDS011;104;53.590;10.004;2023-06-26T03:59:18;25.40;;;12.50;;
239;SDS011;104;53.590;10.004;2023-06-26T04:01:45;21.70;;;13.60;;
239;SDS011;104;53.590;10.004;2023-06-26T04:04:12;24.67;;;13.73;;
239;SDS011;104;53.590;10.004;2023-06-26T04:06:39;24.27;;;13.13;;
239;SDS011;104;53.590;10.004;2023-06-26T04:09:09;27.33;;;14.23;;
239;SDS011;104;53.590;10.004;2023-06-26T04:11:36;29.10;;;15.70;;
239;SDS011;104;53.590;10.004;2023-06-26T04:14:03;25.53;;;14.37;;
239;SDS011;104;53.590;10.004;2023-06-26T04:16:30;24.80;;;15.07;;
239;SDS011;104;53.590;10.004;2023-06-26T04:18:57;25.83;;;14.73;;
239;SDS011;104;53.590;10.004;2023-06-26T04:21:25;27.57;;;15.13;;
239;SDS011;104;53.590;10.004;2023-06-26T04:23:52;25.50;;;13.93;;
239;SDS011;104;53.590;10.004;2023-06-26T04:26:21;26.13;;;14.93;;
239;SDS011;104;53.590;10.004;2023-06-26T04:28:48;22.20;;;13.97;;
239;SDS011;104;53.590;10.004;2023-06-26T04:31:15;21.00;;;13.50;;
239;SDS011;104;53.590;10.004;2023-06-26T04:33:42;28.37;;;15.97;;
239;SDS011;104;53.590;10.004;2023-06-26T04:36:09;22.07;;;12.83;;
239;SDS011;104;53.590;10.004;2023-06-26T04:38:37;31.17;;;15.13;;
239;SDS011;104;53.590;10.004;2023-06-26T04:41:04;23.73;;;14.13;;
239;SDS011;104;53.590;10.004;2023-06-26T04:43:33;23.87;;;14.73;;
239;SDS011;104;53.590;10.004;2023-06-26T04:46:01;30.57;;;16.47;;
239;SDS011;104;53.590;10.004;2023-06-26T04:48:29;27.10;;;15.70;;
239;SDS011;104;53.590;10.004;2023-06-26T04:50:56;34.00;;;16.17;;
239;SDS011;104;53.590;10.004;2023-06-26T04:53:24;33.03;;;16.33;;
239;SDS011;104;53.590;10.004;2023-06-26T04:55:52;24.97;;;15.33;;
239;SDS011;104;53.590;10.004;2023-06-26T04:58:19;27.93;;;15.20;;
239;SDS011;104;53.590;10.004;2023-06-26T05:00:48;24.43;;;14.23;;
239;SDS011;104;53.590;10.004;2023-06-26T05:03:16;29.90;;;15.40;;
239;SDS011;104;53.590;10.004;2023-06-26T05:05:43;33.93;;;15.10;;
239;SDS011;104;53.590;10.004;2023-06-26T05:08:14;24.07;;;14.97;;
239;SDS011;104;53.590;10.004;2023-06-26T05:10:41;26.07;;;14.90;;
239;SDS011;104;53.590;10.004;2023-06-26T05:13:08;24.03;;;14.80;;
239;SDS011;104;53.590;10.004;2023-06-26T05:15:36;30.07;;;15.43;;
239;SDS011;104;53.590;10.004;2023-06-26T05:18:04;27.63;;;15.23;;
239;SDS011;104;53.590;10.004;2023-06-26T05:20:32;25.20;;;14.67;;
239;SDS011;104;53.590;10.004;2023-06-26T05:22:59;31.10;;;14.87;;
239;SDS011;104;53.590;10.004;2023-06-26T05:25:26;38.87;;;15.60;;
239;SDS011;104;53.590;10.004;2023-06-26T05:27:54;24.23;;;15.57;;
239;SDS011;104;53.590;10.004;2023-06-26T05:30:22;25.73;;;14.93;;
239;SDS011;104;53.590;10.004;2023-06-26T05:32:50;33.63;;;16.57;;
239;SDS011;104;53.590;10.004;2023-06-26T05:35:19;21.10;;;13.97;;
239;SDS011;104;53.590;10.004;2023-06-26T05:37:47;21.93;;;14.47;;
239;SDS011;104;53.590;10.004;2023-06-26T05:40:15;32.20;;;16.40;;
239;SDS011;104;53.590;10.004;2023-06-26T05:42:43;31.00;;;16.57;;
239;SDS011;104;53.590;10.004;2023-06-26T05:45:10;24.50;;;15.43;;
239;SDS011;104;53.590;10.004;2023-06-26T05:47:38;26.80;;;16.47;;
239;SDS011;104;53.590;10.004;2023-06-26T05:50:05;35.03;;;17.93;;
239;SDS011;104;53.590;10.004;2023-06-26T05:52:35;32.87;;;19.93;;
239;SDS011;104;53.590;10.004;2023-06-26T05:55:04;28.67;;;18.37;;
239;SDS011;104;53.590;10.004;2023-06-26T05:57:31;36.73;;;23.20;;
239;SDS011;104;53.590;10.004;2023-06-26T05:59:59;38.47;;;32.20;;
239;SDS011;104;53.590;10.004;2023-06-26T06:02:26;35.10;;;25.10;;
239;SDS011;104;53.590;10.004;2023-06-26T06:04:53;44.13;;;36.93;;
239;SDS011;104;53.590;10.004;2023-06-26T06:07:20;44.13;;;38.03;;
239;SDS011;104;53.590;10.004;2023-06-26T06:09:49;46.87;;;33.97;;
239;SDS011;104;53.590;10.004;2023-06-26T06:12:16;60.50;;;49.80;;
239;SDS011;104;53.590;10.004;2023-06-26T06:14:43;49.33;;;39.37;;
239;SDS011;104;53.590;10.004;2023-06-26T06:17:10;79.23;;;75.40;;
239;SDS011;104;53.590;10.004;2023-06-26T06:19:37;57.97;;;55.13;;
239;SDS011;104;53.590;10.004;2023-06-26T06:22:05;78.67;;;74.87;;
239;SDS011;104;53.590;10.004;2023-06-26T06:24:32;85.30;;;81.17;;
239;SDS011;104;53.590;10.004;2023-06-26T06:27:02;65.20;;;62.07;;
239;SDS011;104;53.590;10.004;2023-06-26T06:29:29;55.40;;;47.70;;
239;SDS011;104;53.590;10.004;2023-06-26T06:31:57;46.93;;;42.37;;
239;SDS011;104;53.590;10.004;2023-06-26T06:34:24;63.23;;;60.17;;
239;SDS011;104;53.590;10.004;2023-06-26T06:36:51;53.07;;;42.20;;
239;SDS011;104;53.590;10.004;2023-06-26T06:39:18;60.57;;;41.73;;
239;SDS011;104;53.590;10.004;2023-06-26T06:41:46;47.27;;;35.67;;
239;SDS011;104;53.590;10.004;2023-06-26T06:44:16;114.83;;;109.33;;
239;SDS011;104;53.590;10.004;2023-06-26T06:46:43;102.20;;;97.30;;
239;SDS011;104;53.590;10.004;2023-06-26T06:49:11;179.20;;;170.60;;
239;SDS011;104;53.590;10.004;2023-06-26T06:51:38;202.03;;;192.33;;
239;SDS011;104;53.590;10.004;2023-06-26T06:54:05;211.40;;;201.30;;
239;SDS011;104;53.590;10.004;2023-06-26T06:56:33;227.77;;;216.87;;
239;SDS011;104;53.590;10.004;2023-06-26T06:59:00;201.33;;;191.70;;
239;SDS011;104;53.590;10.004;2023-06-26T07:01:29;177.00;;;168.50;;
239;SDS011;104;53.590;10.004;2023-06-26T07:03:57;223.07;;;212.37;;
239;SDS011;104;53.590;10.004;2023-06-26T07:06:24;147.13;;;140.07;;
239;SDS011;104;53.590;10.004;2023-06-26T07:08:51;120.43;;;114.63;;
239;SDS011;104;53.590;10.004;2023-06-26T07:11:18;119.03;;;113.33;;
239;SDS011;104;53.590;10.004;2023-06-26T07:13:46;129.60;;;123.40;;
239;SDS011;104;53.590;10.004;2023-06-26T07:16:13;120.00;;;114.23;;
239;SDS011;104;53.590;10.004;2023-06-26T07:18:41;79.57;;;75.73;;
239;SDS011;104;53.590;10.004;2023-06-26T07:21:09;103.70;;;98.70;;
239;SDS011;104;53.590;10.004;2023-06-26T07:23:36;126.93;;;120.83;;
239;SDS011;104;53.590;10.004;2023-06-26T07:26:04;91.70;;;87.30;;
239;SDS011;104;53.590;10.004;2023-06-26T07:28:31;93.13;;;88.63;;
239;SDS011;104;53.590;10.004;2023-06-26T07:30:58;61.83;;;58.87;;
239;SDS011;104;53.590;10.004;2023-06-26T07:33:25;80.87;;;76.97;;
239;SDS011;104;53.590;10.004;2023-06-26T07:35:55;54.27;;;46.13;;
239;SDS011;104;53.590;10.004;2023-06-26T07:38:22;69.07;;;65.47;;
239;SDS011;104;53.590;10.004;2023-06-26T07:40:49;97.60;;;92.90;;
239;SDS011;104;53.590;10.004;2023-06-26T07:43:16;92.10;;;87.67;;
239;SDS011;104;53.590;10.004;2023-06-26T07:45:44;81.30;;;77.37;;
239;SDS011;104;53.590;10.004;2023-06-26T07:48:11;99.77;;;94.97;;
239;SDS011;104;53.590;10.004;2023-06-26T07:50:38;95.57;;;90.47;;
239;SDS011;104;53.590;10.004;2023-06-26T07:53:07;73.40;;;69.87;;
239;SDS011;104;53.590;10.004;2023-06-26T07:55:34;65.53;;;62.20;;
239;SDS011;104;53.590;10.004;2023-06-26T07:58:02;68.23;;;64.93;;
239;SDS011;104;53.590;10.004;2023-06-26T08:00:29;78.60;;;74.83;;
239;SDS011;104;53.590;10.004;2023-06-26T08:02:56;113.13;;;107.70;;
239;SDS011;104;53.590;10.004;2023-06-26T08:05:24;40.67;;;36.13;;
239;SDS011;104;53.590;10.004;2023-06-26T08:07:51;69.17;;;65.83;;
239;SDS011;104;53.590;10.004;2023-06-26T08:10:20;88.70;;;84.43;;
239;SDS011;104;53.590;10.004;2023-06-26T08:12:47;119.43;;;113.70;;
239;SDS011;104;53.590;10.004;2023-06-26T08:15:15;86.83;;;82.63;;
239;SDS011;104;53.590;10.004;2023-06-26T08:17:43;60.93;;;44.13;;
239;SDS011;104;53.590;10.004;2023-06-26T08:20:10;171.60;;;163.40;;
239;SDS011;104;53.590;10.004;2023-06-26T08:22:39;177.43;;;168.93;;
239;SDS011;104;53.590;10.004;2023-06-26T08:25:06;204.63;;;194.83;;
239;SDS011;104;53.590;10.004;2023-06-26T08:27:35;226.73;;;215.90;;
239;SDS011;104;53.590;10.004;2023-06-26T08:30:03;92.83;;;88.37;;
239;SDS011;104;53.590;10.004;2023-06-26T08:32:31;174.03;;;165.70;;
239;SDS011;104;53.590;10.004;2023-06-26T08:34:58;180.70;;;172.03;;
239;SDS011;104;53.590;10.004;2023-06-26T08:37:26;117.70;;;112.07;;
239;SDS011;104;53.590;10.004;2023-06-26T08:39:54;146.40;;;139.40;;
239;SDS011;104;53.590;10.004;2023-06-26T08:42:22;156.60;;;149.10;;
239;SDS011;104;53.590;10.004;2023-06-26T08:44:53;167.50;;;159.50;;
239;SDS011;104;53.590;10.004;2023-06-26T08:47:21;181.77;;;173.07;;
239;SDS011;104;53.590;10.004;2023-06-26T08:49:51;109.17;;;103.93;;
239;SDS011;104;53.590;10.004;2023-06-26T08:52:22;139.87;;;133.13;;
239;SDS011;104;53.590;10.004;2023-06-26T08:54:52;183.80;;;175.00;;
239;SDS011;104;53.590;10.004;2023-06-26T08:57:22;129.17;;;122.97;;
239;SDS011;104;53.590;10.004;2023-06-26T08:59:51;139.83;;;133.13;;
239;SDS011;104;53.590;10.004;2023-06-26T09:02:20;125.97;;;119.93;;
239;SDS011;104;53.590;10.004;2023-06-26T09:04:47;106.83;;;101.70;;
239;SDS011;104;53.590;10.004;2023-06-26T09:07:15;77.37;;;73.63;;
239;SDS011;104;53.590;10.004;2023-06-26T09:09:42;92.60;;;88.13;;
239;SDS011;104;53.590;10.004;2023-06-26T09:12:10;99.73;;;94.93;;
239;SDS011;104;53.590;10.004;2023-06-26T09:14:37;91.97;;;87.53;;
239;SDS011;104;53.590;10.004;2023-06-26T09:17:05;116.33;;;110.73;;
239;SDS011;104;53.590;10.004;2023-06-26T09:19:34;186.57;;;177.63;;
239;SDS011;104;53.590;10.004;2023-06-26T09:29:50;98.13;;;93.40;;
239;SDS011;104;53.590;10.004;2023-06-26T09:32:17;158.87;;;151.27;;
239;SDS011;104;53.590;10.004;2023-06-26T09:34:46;110.63;;;105.33;;
239;SDS011;104;53.590;10.004;2023-06-26T09:37:13;119.20;;;113.50;;
239;SDS011;104;53.590;10.004;2023-06-26T09:39:42;125.30;;;119.30;;
239;SDS011;104;53.590;10.004;2023-06-26T09:42:10;134.30;;;127.87;;
239;SDS011;104;53.590;10.004;2023-06-26T09:44:37;133.53;;;127.13;;
239;SDS011;104;53.590;10.004;2023-06-26T09:47:10;145.87;;;138.87;;
239;SDS011;104;53.590;10.004;2023-06-26T09:49:40;95.83;;;91.23;;
239;SDS011;104;53.590;10.004;2023-06-26T09:52:09;93.53;;;89.03;;
239;SDS011;104;53.590;10.004;2023-06-26T09:54:36;104.17;;;99.13;;
239;SDS011;104;53.590;10.004;2023-06-26T09:57:07;124.93;;;118.93;;
239;SDS011;104;53.590;10.004;2023-06-26T09:59:34;306.37;;;291.73;;
239;SDS011;104;53.590;10.004;2023-06-26T10:02:02;329.47;;;313.73;;
239;SDS011;104;53.590;10.004;2023-06-26T10:04:29;250.70;;;238.70;;
239;SDS011;104;53.590;10.004;2023-06-26T10:06:56;212.77;;;202.57;;
239;SDS011;104;53.590;10.004;2023-06-26T10:09:26;234.90;;;223.67;;
239;SDS011;104;53.590;10.004;2023-06-26T10:11:55;218.27;;;207.83;;
239;SDS011;104;53.590;10.004;2023-06-26T10:14:25;253.67;;;241.53;;
239;SDS011;104;53.590;10.004;2023-06-26T10:16:55;177.37;;;168.87;;
239;SDS011;104;53.590;10.004;2023-06-26T10:19:24;204.30;;;194.50;;
239;SDS011;104;53.590;10.004;2023-06-26T10:21:54;183.63;;;174.83;;
239;SDS011;104;53.590;10.004;2023-06-26T10:24:22;121.00;;;115.20;;
239;SDS011;104;53.590;10.004;2023-06-26T10:26:52;221.20;;;210.63;;
239;SDS011;104;53.590;10.004;2023-06-26T10:29:22;287.27;;;273.57;;
239;SDS011;104;53.590;10.004;2023-06-26T10:31:51;274.53;;;261.43;;
239;SDS011;104;53.590;10.004;2023-06-26T10:34:19;176.07;;;167.63;;
239;SDS011;104;53.590;10.004;2023-06-26T10:36:46;259.77;;;247.37;;
239;SDS011;104;53.590;10.004;2023-06-26T10:39:16;294.53;;;280.47;;
239;SDS011;104;53.590;10.004;2023-06-26T10:41:45;382.52;;;363.77;;
239;SDS011;104;53.590;10.004;2023-06-26T10:44:15;328.03;;;312.37;;
239;SDS011;104;53.590;10.004;2023-06-26T10:46:50;351.83;;;335.00;;
239;SDS011;104;53.590;10.004;2023-06-26T10:49:18;374.77;;;356.87;;
239;SDS011;104;53.590;10.004;2023-06-26T10:51:46;482.40;;;434.07;;
239;SDS011;104;53.590;10.004;2023-06-26T10:54:14;606.17;;;522.30;;
239;SDS011;104;53.590;10.004;2023-06-26T10:56:42;505.30;;;447.50;;
239;SDS011;104;53.590;10.004;2023-06-26T10:59:15;361.77;;;344.50;;
239;SDS011;104;53.590;10.004;2023-06-26T11:01:43;547.03;;;476.00;;
239;SDS011;104;53.590;10.004;2023-06-26T11:04:11;458.80;;;415.77;;
239;SDS011;104;53.590;10.004;2023-06-26T11:06:40;417.10;;;387.67;;
239;SDS011;104;53.590;10.004;2023-06-26T11:09:09;580.83;;;503.23;;
239;SDS011;104;53.590;10.004;2023-06-26T11:11:56;358.95;;;341.83;;
239;SDS011;104;53.590;10.004;2023-06-26T11:14:35;483.98;;;432.05;;
239;SDS011;104;53.590;10.004;2023-06-26T11:17:02;564.22;;;500.35;;
239;SDS011;104;53.590;10.004;2023-06-26T11:19:30;514.17;;;469.70;;
239;SDS011;104;53.590;10.004;2023-06-26T11:21:58;535.80;;;464.45;;
239;SDS011;104;53.590;10.004;2023-06-26T11:24:26;571.13;;;496.00;;
239;SDS011;104;53.590;10.004;2023-06-26T11:26:56;424.90;;;404.20;;
239;SDS011;104;53.590;10.004;2023-06-26T11:29:27;457.30;;;415.27;;
239;SDS011;104;53.590;10.004;2023-06-26T11:32:05;326.35;;;310.75;;
239;SDS011;104;53.590;10.004;2023-06-26T11:34:33;278.77;;;265.45;;
239;SDS011;104;53.590;10.004;2023-06-26T11:37:02;168.85;;;160.77;;
239;SDS011;104;53.590;10.004;2023-06-26T11:39:30;152.38;;;145.07;;
239;SDS011;104;53.590;10.004;2023-06-26T11:41:58;274.30;;;261.20;;
239;SDS011;104;53.590;10.004;2023-06-26T11:44:28;196.05;;;186.68;;
239;SDS011;104;53.590;10.004;2023-06-26T11:46:56;278.73;;;265.40;;
239;SDS011;104;53.590;10.004;2023-06-26T11:49:26;284.75;;;271.13;;
239;SDS011;104;53.590;10.004;2023-06-26T11:59:40;288.55;;;274.75;;
239;SDS011;104;53.590;10.004;2023-06-26T12:02:54;310.90;;;296.08;;
239;SDS011;104;53.590;10.004;2023-06-26T12:05:23;371.02;;;353.33;;
239;SDS011;104;53.590;10.004;2023-06-26T12:07:51;336.23;;;320.17;;
239;SDS011;104;53.590;10.004;2023-06-26T12:10:18;460.33;;;414.83;;
239;SDS011;104;53.590;10.004;2023-06-26T12:12:46;537.33;;;474.58;;
239;SDS011;104;53.590;10.004;2023-06-26T12:15:15;636.33;;;543.30;;
239;SDS011;104;53.590;10.004;2023-06-26T12:17:42;788.50;;;658.67;;
239;SDS011;104;53.590;10.004;2023-06-26T12:20:19;552.33;;;485.20;;
239;SDS011;104;53.590;10.004;2023-06-26T12:22:49;624.60;;;540.40;;
239;SDS011;104;53.590;10.004;2023-06-26T12:25:21;701.00;;;581.05;;
239;SDS011;104;53.590;10.004;2023-06-26T12:27:48;673.50;;;566.17;;
239;SDS011;104;53.590;10.004;2023-06-26T12:30:16;551.15;;;479.95;;
239;SDS011;104;53.590;10.004;2023-06-26T12:32:46;375.55;;;357.63;;
239;SDS011;104;53.590;10.004;2023-06-26T12:35:14;375.63;;;345.65;;
239;SDS011;104;53.590;10.004;2023-06-26T12:37:42;282.98;;;269.45;;
239;SDS011;104;53.590;10.004;2023-06-26T12:40:18;403.25;;;381.17;;
239;SDS011;104;53.590;10.004;2023-06-26T12:42:47;258.05;;;245.75;;
239;SDS011;104;53.590;10.004;2023-06-26T12:45:14;306.25;;;291.60;;
239;SDS011;104;53.590;10.004;2023-06-26T12:47:42;315.05;;;300.00;;
239;SDS011;104;53.590;10.004;2023-06-26T12:50:09;325.05;;;309.52;;
239;SDS011;104;53.590;10.004;2023-06-26T12:52:37;336.58;;;320.50;;
239;SDS011;104;53.590;10.004;2023-06-26T12:55:05;574.08;;;499.13;;
239;SDS011;104;53.590;10.004;2023-06-26T12:57:34;925.25;;;760.45;;
239;SDS011;104;53.590;10.004;2023-06-26T13:00:01;859.70;;;697.85;;
239;SDS011;104;53.590;10.004;2023-06-26T13:02:30;733.40;;;626.17;;
239;SDS011;104;53.590;10.004;2023-06-26T13:05:00;1053.15;;;781.17;;
239;SDS011;104;53.590;10.004;2023-06-26T13:07:28;1161.35;;;842.83;;
239;SDS011;104;53.590;10.004;2023-06-26T13:09:56;942.70;;;759.58;;
239;SDS011;104;53.590;10.004;2023-06-26T13:12:23;909.55;;;721.67;;
239;SDS011;104;53.590;10.004;2023-06-26T13:14:52;1005.33;;;798.67;;
239;SDS011;104;53.590;10.004;2023-06-26T13:17:19;294.90;;;280.80;;
239;SDS011;104;53.590;10.004;2023-06-26T13:19:47;11.07;;;7.72;;
239;SDS011;104;53.590;10.004;2023-06-26T13:22:15;7.78;;;7.40;;
239;SDS011;104;53.590;10.004;2023-06-26T13:24:42;11.43;;;7.38;;
239;SDS011;104;53.590;10.004;2023-06-26T13:27:11;8.63;;;7.22;;
239;SDS011;104;53.590;10.004;2023-06-26T13:29:41;8.82;;;8.00;;
239;SDS011;104;53.590;10.004;2023-06-26T13:32:10;12.48;;;7.35;;
239;SDS011;104;53.590;10.004;2023-06-26T13:34:37;11.80;;;7.57;;
239;SDS011;104;53.590;10.004;2023-06-26T13:37:06;9.07;;;7.65;;
239;SDS011;104;53.590;10.004;2023-06-26T13:39:34;8.68;;;7.20;;
239;SDS011;104;53.590;10.004;2023-06-26T13:42:01;11.10;;;7.30;;
239;SDS011;104;53.590;10.004;2023-06-26T13:44:29;8.95;;;7.43;;
239;SDS011;104;53.590;10.004;2023-06-26T13:57:46;8.32;;;6.85;;
239;SDS011;104;53.590;10.004;2023-06-26T14:00:14;12.00;;;7.47;;
239;SDS011;104;53.590;10.004;2023-06-26T14:02:45;12.55;;;8.18;;
239;SDS011;104;53.590;10.004;2023-06-26T14:05:12;13.57;;;8.25;;
239;SDS011;104;53.590;10.004;2023-06-26T14:07:40;9.15;;;7.25;;
239;SDS011;104;53.590;10.004;2023-06-26T14:10:09;9.07;;;7.35;;
239;SDS011;104;53.590;10.004;2023-06-26T14:28:35;10.13;;;7.50;;
239;SDS011;104;53.590;10.004;2023-06-26T14:31:03;8.00;;;7.22;;
239;SDS011;104;53.590;10.004;2023-06-26T14:33:31;8.55;;;6.93;;
239;SDS011;104;53.590;10.004;2023-06-26T14:35:58;7.25;;;6.72;;
239;SDS011;104;53.590;10.004;2023-06-26T14:38:26;9.40;;;7.07;;
239;SDS011;104;53.590;10.004;2023-06-26T14:40:54;6.82;;;6.40;;
239;SDS011;104;53.590;10.004;2023-06-26T14:43:22;9.85;;;7.32;;
239;SDS011;104;53.590;10.004;2023-06-26T14:45:50;8.93;;;7.00;;
239;SDS011;104;53.590;10.004;2023-06-26T14:48:19;12.48;;;7.32;;
239;SDS011;104;53.590;10.004;2023-06-26T14:50:48;25.15;;;8.48;;
239;SDS011;104;53.590;10.004;2023-06-26T14:53:15;9.13;;;7.13;;
239;SDS011;104;53.590;10.004;2023-06-26T14:55:42;10.95;;;7.80;;
239;SDS011;104;53.590;10.004;2023-06-26T14:58:09;8.00;;;7.13;;
239;SDS011;104;53.590;10.004;2023-06-26T15:00:37;8.50;;;7.38;;
239;SDS011;104;53.590;10.004;2023-06-26T15:03:05;12.40;;;8.00;;
239;SDS011;104;53.590;10.004;2023-06-26T15:05:33;16.25;;;7.97;;
239;SDS011;104;53.590;10.004;2023-06-26T15:08:00;12.10;;;7.78;;
239;SDS011;104;53.590;10.004;2023-06-26T15:10:27;9.60;;;8.02;;
239;SDS011;104;53.590;10.004;2023-06-26T15:12:55;9.10;;;7.25;;
239;SDS011;104;53.590;10.004;2023-06-26T15:15:22;11.18;;;7.97;;
239;SDS011;104;53.590;10.004;2023-06-26T15:17:50;14.30;;;7.72;;
239;SDS011;104;53.590;10.004;2023-06-26T15:20:18;15.25;;;8.00;;
239;SDS011;104;53.590;10.004;2023-06-26T15:22:46;9.75;;;7.63;;
239;SDS011;104;53.590;10.004;2023-06-26T15:25:13;9.05;;;7.63;;
239;SDS011;104;53.590;10.004;2023-06-26T15:27:41;9.50;;;7.70;;
239;SDS011;104;53.590;10.004;2023-06-26T15:30:08;10.10;;;7.78;;
239;SDS011;104;53.590;10.004;2023-06-26T15:32:36;18.83;;;8.05;;
239;SDS011;104;53.590;10.004;2023-06-26T15:35:03;11.35;;;8.40;;
239;SDS011;104;53.590;10.004;2023-06-26T15:37:32;12.25;;;7.97;;
239;SDS011;104;53.590;10.004;2023-06-26T15:40:00;14.77;;;8.00;;
239;SDS011;104;53.590;10.004;2023-06-26T15:42:27;19.88;;;8.35;;
239;SDS011;104;53.590;10.004;2023-06-26T15:44:54;22.02;;;8.63;;
239;SDS011;104;53.590;10.004;2023-06-26T15:47:22;13.27;;;8.65;;
239;SDS011;104;53.590;10.004;2023-06-26T15:49:50;10.82;;;8.52;;
239;SDS011;104;53.590;10.004;2023-06-26T15:52:18;14.32;;;9.10;;
239;SDS011;104;53.590;10.004;2023-06-26T16:01:05;15.13;;;9.00;;
239;SDS011;104;53.590;10.004;2023-06-26T17:34:58;31.80;;;12.43;;